sensor_id;sensor_type;location;lat;lon;timestamp;pressure;altitude;pressure_sealevel;temperature;humidity
24031;BME280;12240;51.142;22.486;2023-07-09T00:02:25;99693.84;;;14.94;100.00
24031;BME280;12240;51.142;22.486;2023-07-09T00:04:54;99693.84;;;14.94;100.00
24031;BME280;12240;51.142;22.486;2023-07-09T00:07:30;62174.59;;;-142.46;100.00
24031;BME280;12240;51.142;22.486;2023-07-09T00:09:59;62174.59;;;-142.46;100.00
24031;BME280;12240;51.142;22.486;2023-07-09T00:12:28;62174.59;;;-142.46;100.00
24031;BME280;12240;51.142;22.486;2023-07-09T00:14:57;62174.59;;;-142.46;100.00
24031;BME280;12240;51.142;22.486;2023-07-09T00:17:32;62174.59;;;-142.46;100.00
24031;BME280;12240;51.142;22.486;2023-07-09T00:20:04;62174.59;;;-142.46;100.00
24031;BME280;12240;51.142;22.486;2023-07-09T00:22:33;62174.59;;;-142.46;100.00
24031;BME280;12240;51.142;22.486;2023-07-09T00:25:02;62174.59;;;-142.46;100.00
24031;BME280;12240;51.142;22.486;2023-07-09T00:27:31;62174.59;;;-142.46;100.00
24031;BME280;12240;51.142;22.486;2023-07-09T00:30:00;62174.59;;;-142.46;100.00
24031;BME280;12240;51.142;22.486;2023-07-09T00:32:28;62174.59;;;-142.46;100.00
24031;BME280;12240;51.142;22.486;2023-07-09T00:34:56;62174.59;;;-142.46;100.00
24031;BME280;12240;51.142;22.486;2023-07-09T00:37:25;62174.59;;;-142.46;100.00
24031;BME280;12240;51.142;22.486;2023-07-09T00:39:53;62174.59;;;-142.46;100.00
24031;BME280;12240;51.142;22.486;2023-07-09T00:42:22;99686.75;;;14.31;100.00
24031;BME280;12240;51.142;22.486;2023-07-09T00:44:53;99689.91;;;14.26;100.00
24031;BME280;12240;51.142;22.486;2023-07-09T00:47:37;99690.22;;;14.23;100.00
24031;BME280;12240;51.142;22.486;2023-07-09T00:50:20;99693.91;;;14.22;100.00
24031;BME280;12240;51.142;22.486;2023-07-09T00:53:02;99692.91;;;14.31;100.00
24031;BME280;12240;51.142;22.486;2023-07-09T00:55:40;99693.25;;;14.36;100.00
24031;BME280;12240;51.142;22.486;2023-07-09T00:58:13;99689.59;;;14.37;100.00
24031;BME280;12240;51.142;22.486;2023-07-09T01:00:50;99695.78;;;14.38;100.00
24031;BME280;12240;51.142;22.486;2023-07-09T01:05:58;99685.22;;;14.20;100.00
24031;BME280;12240;51.142;22.486;2023-07-09T01:08:31;99688.19;;;14.17;100.00
24031;BME280;12240;51.142;22.486;2023-07-09T01:11:00;99688.22;;;14.09;100.00
24031;BME280;12240;51.142;22.486;2023-07-09T01:13:29;99690.75;;;14.19;100.00
24031;BME280;12240;51.142;22.486;2023-07-09T01:16:00;99688.56;;;14.22;100.00
24031;BME280;12240;51.142;22.486;2023-07-09T01:27:48;99685.72;;;14.07;100.00
24031;BME280;12240;51.142;22.486;2023-07-09T01:32:51;99690.06;;;14.00;100.00
24031;BME280;12240;51.142;22.486;2023-07-09T01:35:23;99684.53;;;13.94;100.00
24031;BME280;12240;51.142;22.486;2023-07-09T01:37:53;99686.38;;;13.85;100.00
24031;BME280;12240;51.142;22.486;2023-07-09T01:40:24;99681.66;;;13.79;100.00
24031;BME280;12240;51.142;22.486;2023-07-09T01:43:01;99688.84;;;13.71;100.00
24031;BME280;12240;51.142;22.486;2023-07-09T01:45:29;99693.84;;;13.50;100.00
24031;BME280;12240;51.142;22.486;2023-07-09T01:48:02;99695.16;;;13.54;100.00
24031;BME280;12240;51.142;22.486;2023-07-09T01:50:30;99687.13;;;13.54;100.00
24031;BME280;12240;51.142;22.486;2023-07-09T01:52:59;99698.50;;;13.48;100.00
24031;BME280;12240;51.142;22.486;2023-07-09T01:55:29;99696.78;;;13.39;100.00
24031;BME280;12240;51.142;22.486;2023-07-09T01:57:58;99694.63;;;13.34;100.00
24031;BME280;12240;51.142;22.486;2023-07-09T02:00:26;99692.75;;;13.35;100.00
24031;BME280;12240;51.142;22.486;2023-07-09T02:02:54;99692.41;;;13.30;100.00
24031;BME280;12240;51.142;22.486;2023-07-09T02:05:23;99699.81;;;13.36;100.00
24031;BME280;12240;51.142;22.486;2023-07-09T02:07:53;99693.59;;;13.35;100.00
24031;BME280;12240;51.142;22.486;2023-07-09T02:10:22;99693.09;;;13.32;100.00
24031;BME280;12240;51.142;22.486;2023-07-09T02:12:50;99689.22;;;13.26;100.00
24031;BME280;12240;51.142;22.486;2023-07-09T02:15:19;99690.72;;;13.21;100.00
24031;BME280;12240;51.142;22.486;2023-07-09T02:17:47;99691.19;;;13.16;100.00
24031;BME280;12240;51.142;22.486;2023-07-09T02:20:15;99699.03;;;13.10;100.00
24031;BME280;12240;51.142;22.486;2023-07-09T02:22:44;99700.09;;;12.99;100.00
24031;BME280;12240;51.142;22.486;2023-07-09T02:25:12;99697.44;;;12.99;100.00
24031;BME280;12240;51.142;22.486;2023-07-09T02:27:40;99698.09;;;12.93;100.00
24031;BME280;12240;51.142;22.486;2023-07-09T02:30:08;99699.59;;;12.96;100.00
24031;BME280;12240;51.142;22.486;2023-07-09T02:32:39;99702.91;;;12.89;100.00
24031;BME280;12240;51.142;22.486;2023-07-09T02:35:09;99703.06;;;12.88;100.00
24031;BME280;12240;51.142;22.486;2023-07-09T02:37:37;99707.75;;;12.86;100.00
24031;BME280;12240;51.142;22.486;2023-07-09T02:40:08;99705.44;;;12.91;100.00
24031;BME280;12240;51.142;22.486;2023-07-09T02:42:36;99707.59;;;12.96;100.00
24031;BME280;12240;51.142;22.486;2023-07-09T02:45:05;99699.19;;;13.08;100.00
24031;BME280;12240;51.142;22.486;2023-07-09T02:47:34;99699.03;;;13.10;100.00
24031;BME280;12240;51.142;22.486;2023-07-09T02:50:03;99700.84;;;13.09;100.00
24031;BME280;12240;51.142;22.486;2023-07-09T03:01:44;99693.53;;;13.19;100.00
24031;BME280;12240;51.142;22.486;2023-07-09T03:04:14;99701.78;;;13.26;100.00
24031;BME280;12240;51.142;22.486;2023-07-09T03:06:42;99693.25;;;13.22;100.00
24031;BME280;12240;51.142;22.486;2023-07-09T03:09:10;99698.28;;;13.33;100.00
24031;BME280;12240;51.142;22.486;2023-07-09T03:11:39;99687.88;;;13.22;100.00
24031;BME280;12240;51.142;22.486;2023-07-09T03:14:08;99694.72;;;13.17;100.00
24031;BME280;12240;51.142;22.486;2023-07-09T03:16:36;99697.38;;;13.17;100.00
24031;BME280;12240;51.142;22.486;2023-07-09T03:19:04;99697.38;;;13.09;100.00
24031;BME280;12240;51.142;22.486;2023-07-09T03:21:33;99697.13;;;13.02;100.00
24031;BME280;12240;51.142;22.486;2023-07-09T03:24:01;99694.75;;;12.99;100.00
24031;BME280;12240;51.142;22.486;2023-07-09T03:26:30;99693.66;;;13.02;100.00
24031;BME280;12240;51.142;22.486;2023-07-09T03:28:58;99697.50;;;13.07;100.00
24031;BME280;12240;51.142;22.486;2023-07-09T03:31:26;99699.03;;;13.10;100.00
24031;BME280;12240;51.142;22.486;2023-07-09T03:33:54;99696.16;;;13.03;100.00
24031;BME280;12240;51.142;22.486;2023-07-09T03:36:22;99697.66;;;13.06;100.00
24031;BME280;12240;51.142;22.486;2023-07-09T03:38:51;99692.88;;;13.17;100.00
24031;BME280;12240;51.142;22.486;2023-07-09T03:41:19;99699.63;;;13.29;100.00
24031;BME280;12240;51.142;22.486;2023-07-09T03:43:47;99694.44;;;13.36;100.00
24031;BME280;12240;51.142;22.486;2023-07-09T03:46:17;99689.28;;;13.42;100.00
24031;BME280;12240;51.142;22.486;2023-07-09T03:48:46;99695.84;;;13.56;100.00
24031;BME280;12240;51.142;22.486;2023-07-09T03:51:14;99699.69;;;13.61;100.00
24031;BME280;12240;51.142;22.486;2023-07-09T03:53:42;99692.19;;;13.73;100.00
24031;BME280;12240;51.142;22.486;2023-07-09T03:56:10;99692.22;;;13.81;100.00
24031;BME280;12240;51.142;22.486;2023-07-09T03:58:38;99689.56;;;13.89;100.00
24031;BME280;12240;51.142;22.486;2023-07-09T04:01:06;99685.53;;;14.01;100.00
24031;BME280;12240;51.142;22.486;2023-07-09T04:03:34;99691.56;;;14.11;100.00
24031;BME280;12240;51.142;22.486;2023-07-09T04:06:03;99694.47;;;14.26;100.00
24031;BME280;12240;51.142;22.486;2023-07-09T04:08:32;99693.44;;;14.43;100.00
24031;BME280;12240;51.142;22.486;2023-07-09T04:11:01;99695.75;;;14.62;100.00
24031;BME280;12240;51.142;22.486;2023-07-09T04:13:30;99692.19;;;14.85;100.00
24031;BME280;12240;51.142;22.486;2023-07-09T04:15:58;99694.78;;;15.09;100.00
24031;BME280;12240;51.142;22.486;2023-07-09T04:18:27;99690.31;;;15.41;100.00
24031;BME280;12240;51.142;22.486;2023-07-09T04:20:55;99690.91;;;15.81;100.00
24031;BME280;12240;51.142;22.486;2023-07-09T04:23:23;62174.59;;;-142.46;100.00
24031;BME280;12240;51.142;22.486;2023-07-09T04:25:51;99686.59;;;16.40;100.00
24031;BME280;12240;51.142;22.486;2023-07-09T04:28:20;99681.56;;;16.74;100.00
24031;BME280;12240;51.142;22.486;2023-07-09T04:30:50;99677.84;;;17.04;100.00
24031;BME280;12240;51.142;22.486;2023-07-09T04:33:20;99681.75;;;17.16;100.00
24031;BME280;12240;51.142;22.486;2023-07-09T04:35:58;99670.81;;;17.68;100.00
24031;BME280;12240;51.142;22.486;2023-07-09T04:38:27;99670.41;;;18.07;100.00
24031;BME280;12240;51.142;22.486;2023-07-09T04:40:55;99674.63;;;18.16;100.00
24031;BME280;12240;51.142;22.486;2023-07-09T04:43:23;99674.59;;;18.37;100.00
24031;BME280;12240;51.142;22.486;2023-07-09T04:45:51;99668.97;;;18.53;100.00
24031;BME280;12240;51.142;22.486;2023-07-09T04:52:46;62174.59;;;-142.46;100.00
24031;BME280;12240;51.142;22.486;2023-07-09T04:55:14;99661.75;;;19.82;100.00
24031;BME280;12240;51.142;22.486;2023-07-09T04:57:42;99647.44;;;20.08;100.00
24031;BME280;12240;51.142;22.486;2023-07-09T05:00:11;99652.25;;;20.32;100.00
24031;BME280;12240;51.142;22.486;2023-07-09T05:02:40;99649.75;;;20.63;100.00
24031;BME280;12240;51.142;22.486;2023-07-09T05:05:09;99651.81;;;20.61;100.00
24031;BME280;12240;51.142;22.486;2023-07-09T05:07:38;99651.81;;;20.61;100.00
24031;BME280;12240;51.142;22.486;2023-07-09T05:10:07;62174.59;;;-142.46;100.00
24031;BME280;12240;51.142;22.486;2023-07-09T05:12:35;62174.59;;;-142.46;100.00
24031;BME280;12240;51.142;22.486;2023-07-09T05:15:04;99633.13;;;21.74;100.00
24031;BME280;12240;51.142;22.486;2023-07-09T05:17:32;99630.38;;;21.43;100.00
24031;BME280;12240;51.142;22.486;2023-07-09T05:20:01;99634.03;;;21.61;100.00
24031;BME280;12240;51.142;22.486;2023-07-09T05:22:29;99636.53;;;22.01;100.00
24031;BME280;12240;51.142;22.486;2023-07-09T05:24:57;99638.59;;;22.30;100.00
24031;BME280;12240;51.142;22.486;2023-07-09T05:27:25;99635.84;;;22.61;100.00
24031;BME280;12240;51.142;22.486;2023-07-09T05:29:54;99639.41;;;22.79;100.00
24031;BME280;12240;51.142;22.486;2023-07-09T05:32:22;99638.56;;;22.79;100.00
24031;BME280;12240;51.142;22.486;2023-07-09T05:34:50;99632.72;;;22.82;100.00
24031;BME280;12240;51.142;22.486;2023-07-09T05:37:18;99644.06;;;23.33;100.00
24031;BME280;12240;51.142;22.486;2023-07-09T05:39:46;99644.66;;;22.99;100.00
24031;BME280;12240;51.142;22.486;2023-07-09T05:42:14;99643.47;;;23.13;100.00
24031;BME280;12240;51.142;22.486;2023-07-09T05:44:42;99634.53;;;23.24;100.00
24031;BME280;12240;51.142;22.486;2023-07-09T05:47:10;99643.06;;;22.91;100.00
24031;BME280;12240;51.142;22.486;2023-07-09T05:49:39;99639.34;;;23.58;100.00
24031;BME280;12240;51.142;22.486;2023-07-09T05:52:07;99620.88;;;23.49;100.00
24031;BME280;12240;51.142;22.486;2023-07-09T05:54:35;99625.16;;;23.86;100.00
24031;BME280;12240;51.142;22.486;2023-07-09T05:57:05;99634.63;;;24.25;100.00
24031;BME280;12240;51.142;22.486;2023-07-09T05:59:33;99614.03;;;24.29;100.00
24031;BME280;12240;51.142;22.486;2023-07-09T06:02:02;99615.72;;;24.53;100.00
24031;BME280;12240;51.142;22.486;2023-07-09T06:04:31;99620.47;;;24.69;100.00
24031;BME280;12240;51.142;22.486;2023-07-09T06:07:01;99610.69;;;24.03;100.00
24031;BME280;12240;51.142;22.486;2023-07-09T06:09:32;99619.75;;;24.50;100.00
24031;BME280;12240;51.142;22.486;2023-07-09T06:12:01;99622.16;;;24.81;100.00
24031;BME280;12240;51.142;22.486;2023-07-09T06:14:31;99624.59;;;24.60;100.00
24031;BME280;12240;51.142;22.486;2023-07-09T06:17:01;99634.44;;;25.07;100.00
24031;BME280;12240;51.142;22.486;2023-07-09T06:19:30;99625.38;;;25.41;100.00
24031;BME280;12240;51.142;22.486;2023-07-09T06:21:58;99628.69;;;25.20;100.00
24031;BME280;12240;51.142;22.486;2023-07-09T06:24:26;99634.19;;;25.88;100.00
24031;BME280;12240;51.142;22.486;2023-07-09T06:26:55;99634.34;;;25.53;100.00
24031;BME280;12240;51.142;22.486;2023-07-09T06:29:23;99639.19;;;26.07;100.00
24031;BME280;12240;51.142;22.486;2023-07-09T06:31:51;99630.94;;;26.02;100.00
24031;BME280;12240;51.142;22.486;2023-07-09T06:34:19;99631.78;;;25.23;100.00
24031;BME280;12240;51.142;22.486;2023-07-09T06:36:48;99633.47;;;25.64;100.00
24031;BME280;12240;51.142;22.486;2023-07-09T06:39:17;99615.13;;;24.85;99.98
24031;BME280;12240;51.142;22.486;2023-07-09T06:41:47;99618.84;;;25.98;99.79
24031;BME280;12240;51.142;22.486;2023-07-09T06:44:35;99618.97;;;26.86;94.88
24031;BME280;12240;51.142;22.486;2023-07-09T06:47:04;99609.28;;;26.45;92.23
24031;BME280;12240;51.142;22.486;2023-07-09T06:49:32;99623.72;;;26.96;93.41
24031;BME280;12240;51.142;22.486;2023-07-09T06:52:00;99600.09;;;26.68;88.43
24031;BME280;12240;51.142;22.486;2023-07-09T06:54:29;99599.75;;;27.68;85.08
24031;BME280;12240;51.142;22.486;2023-07-09T06:56:57;99576.22;;;26.25;79.11
24031;BME280;12240;51.142;22.486;2023-07-09T06:59:26;99589.16;;;26.85;80.18
24031;BME280;12240;51.142;22.486;2023-07-09T07:01:55;99590.97;;;27.66;79.66
24031;BME280;12240;51.142;22.486;2023-07-09T07:04:26;99569.09;;;26.08;76.89
24031;BME280;12240;51.142;22.486;2023-07-09T07:06:55;99591.28;;;26.28;78.23
24031;BME280;12240;51.142;22.486;2023-07-09T07:09:24;99590.94;;;26.41;78.65
24031;BME280;12240;51.142;22.486;2023-07-09T07:11:52;99586.03;;;27.19;77.00
24031;BME280;12240;51.142;22.486;2023-07-09T07:14:21;99591.06;;;27.49;75.78
24031;BME280;12240;51.142;22.486;2023-07-09T07:16:50;99575.97;;;26.10;74.48
24031;BME280;12240;51.142;22.486;2023-07-09T07:19:18;99586.19;;;26.70;75.72
24031;BME280;12240;51.142;22.486;2023-07-09T07:21:46;99588.66;;;26.88;76.44
24031;BME280;12240;51.142;22.486;2023-07-09T07:24:14;99595.97;;;27.95;76.79
24031;BME280;12240;51.142;22.486;2023-07-09T07:26:42;99575.16;;;28.26;74.08
24031;BME280;12240;51.142;22.486;2023-07-09T07:29:10;99593.16;;;27.64;73.75
24031;BME280;12240;51.142;22.486;2023-07-09T07:31:38;99596.72;;;28.86;73.00
24031;BME280;12240;51.142;22.486;2023-07-09T07:34:06;99592.81;;;28.77;71.75
24031;BME280;12240;51.142;22.486;2023-07-09T07:36:34;99575.78;;;28.01;69.34
24031;BME280;12240;51.142;22.486;2023-07-09T07:39:09;99578.72;;;28.26;70.32
24031;BME280;12240;51.142;22.486;2023-07-09T07:41:37;99597.63;;;28.28;72.14
24031;BME280;12240;51.142;22.486;2023-07-09T07:44:05;99587.00;;;28.00;71.25
24031;BME280;12240;51.142;22.486;2023-07-09T07:46:34;99602.06;;;28.34;72.26
24031;BME280;12240;51.142;22.486;2023-07-09T07:49:03;99593.75;;;28.97;70.35
24031;BME280;12240;51.142;22.486;2023-07-09T07:51:31;99586.81;;;29.36;67.82
24031;BME280;12240;51.142;22.486;2023-07-09T07:53:59;99588.00;;;28.20;67.46
24031;BME280;12240;51.142;22.486;2023-07-09T07:56:27;99586.50;;;28.76;67.69
24031;BME280;12240;51.142;22.486;2023-07-09T07:58:55;99592.41;;;29.00;68.40
24031;BME280;12240;51.142;22.486;2023-07-09T08:01:25;99598.09;;;28.93;67.92
24031;BME280;12240;51.142;22.486;2023-07-09T08:03:54;99594.34;;;29.04;67.66
24031;BME280;12240;51.142;22.486;2023-07-09T08:06:22;99576.59;;;29.12;65.10
24031;BME280;12240;51.142;22.486;2023-07-09T08:08:50;99598.81;;;30.12;66.70
24031;BME280;12240;51.142;22.486;2023-07-09T08:11:18;99595.50;;;30.65;65.27
24031;BME280;12240;51.142;22.486;2023-07-09T08:13:47;99585.66;;;30.39;63.55
24031;BME280;12240;51.142;22.486;2023-07-09T08:16:16;99575.50;;;30.40;63.21
24031;BME280;12240;51.142;22.486;2023-07-09T08:18:46;99582.88;;;30.14;62.01
24031;BME280;12240;51.142;22.486;2023-07-09T08:21:14;99579.31;;;29.94;62.78
24031;BME280;12240;51.142;22.486;2023-07-09T08:23:43;99580.97;;;30.55;62.10
24031;BME280;12240;51.142;22.486;2023-07-09T08:26:11;99575.16;;;30.76;61.24
24031;BME280;12240;51.142;22.486;2023-07-09T08:28:39;99592.03;;;31.44;61.12
24031;BME280;12240;51.142;22.486;2023-07-09T08:31:08;99583.41;;;30.76;59.67
24031;BME280;12240;51.142;22.486;2023-07-09T08:33:36;99593.31;;;29.97;60.84
24031;BME280;12240;51.142;22.486;2023-07-09T08:36:05;99588.41;;;30.29;60.99
24031;BME280;12240;51.142;22.486;2023-07-09T08:38:34;99597.44;;;30.20;61.28
24031;BME280;12240;51.142;22.486;2023-07-09T08:44:19;99606.53;;;30.86;61.37
24031;BME280;12240;51.142;22.486;2023-07-09T08:47:11;99592.97;;;31.09;60.14
24031;BME280;12240;51.142;22.486;2023-07-09T08:49:46;99593.09;;;31.48;59.34
24031;BME280;12240;51.142;22.486;2023-07-09T08:52:41;99575.19;;;31.50;58.38
24031;BME280;12240;51.142;22.486;2023-07-09T08:55:22;99587.91;;;31.41;57.32
24031;BME280;12240;51.142;22.486;2023-07-09T08:58:00;99585.47;;;31.35;56.79
24031;BME280;12240;51.142;22.486;2023-07-09T09:00:47;99582.91;;;30.39;57.45
24031;BME280;12240;51.142;22.486;2023-07-09T09:03:44;99584.34;;;29.40;57.84
24031;BME280;12240;51.142;22.486;2023-07-09T09:06:26;99605.41;;;29.24;60.31
24031;BME280;12240;51.142;22.486;2023-07-09T09:12:26;99612.53;;;30.02;59.72
24031;BME280;12240;51.142;22.486;2023-07-09T09:15:13;99594.53;;;28.19;58.74
24031;BME280;12240;51.142;22.486;2023-07-09T09:17:44;99592.78;;;28.03;59.18
24031;BME280;12240;51.142;22.486;2023-07-09T09:20:19;99611.38;;;27.31;60.88
24031;BME280;12240;51.142;22.486;2023-07-09T09:25:40;99615.44;;;29.04;60.25
24031;BME280;12240;51.142;22.486;2023-07-09T09:28:10;99612.78;;;28.67;59.52
24031;BME280;12240;51.142;22.486;2023-07-09T09:30:38;99621.25;;;29.79;60.28
24031;BME280;12240;51.142;22.486;2023-07-09T09:33:10;99615.28;;;31.03;60.03
24031;BME280;12240;51.142;22.486;2023-07-09T09:35:42;99602.69;;;31.55;58.03
24031;BME280;12240;51.142;22.486;2023-07-09T09:38:22;99613.53;;;31.37;57.43
24031;BME280;12240;51.142;22.486;2023-07-09T09:40:50;99610.34;;;30.84;57.79
24031;BME280;12240;51.142;22.486;2023-07-09T09:43:20;99593.84;;;29.89;57.06
24031;BME280;12240;51.142;22.486;2023-07-09T09:45:51;99601.00;;;30.10;57.79
24031;BME280;12240;51.142;22.486;2023-07-09T09:48:28;99595.38;;;29.55;57.92
24031;BME280;12240;51.142;22.486;2023-07-09T09:50:58;99623.47;;;29.77;60.73
24031;BME280;12240;51.142;22.486;2023-07-09T09:53:41;99603.75;;;30.65;56.86
24031;BME280;12240;51.142;22.486;2023-07-09T09:56:36;99568.41;;;29.22;53.96
24031;BME280;12240;51.142;22.486;2023-07-09T09:59:05;99599.28;;;29.74;56.67
24031;BME280;12240;51.142;22.486;2023-07-09T10:01:35;99606.50;;;30.70;58.07
24031;BME280;12240;51.142;22.486;2023-07-09T10:04:05;99605.94;;;30.99;57.12
24031;BME280;12240;51.142;22.486;2023-07-09T10:06:40;99595.63;;;29.48;55.86
24031;BME280;12240;51.142;22.486;2023-07-09T10:09:47;99601.56;;;30.82;56.46
24031;BME280;12240;51.142;22.486;2023-07-09T10:29:34;99594.44;;;30.51;53.95
24031;BME280;12240;51.142;22.486;2023-07-09T10:33:09;99568.00;;;29.03;52.14
24031;BME280;12240;51.142;22.486;2023-07-09T10:39:25;99593.63;;;28.72;54.32
24031;BME280;12240;51.142;22.486;2023-07-09T10:42:00;99582.69;;;28.45;53.06
24031;BME280;12240;51.142;22.486;2023-07-09T10:44:36;99581.41;;;29.56;53.16
24031;BME280;12240;51.142;22.486;2023-07-09T10:47:38;99610.38;;;30.79;54.10
24031;BME280;12240;51.142;22.486;2023-07-09T10:50:39;99583.94;;;30.68;51.98
24031;BME280;12240;51.142;22.486;2023-07-09T10:53:43;99574.09;;;30.62;50.46
24031;BME280;12240;51.142;22.486;2023-07-09T10:56:20;99563.94;;;30.13;50.46
24031;BME280;12240;51.142;22.486;2023-07-09T11:01:52;99597.56;;;31.24;53.44
24031;BME280;12240;51.142;22.486;2023-07-09T11:10:38;99581.41;;;32.48;50.48
24031;BME280;12240;51.142;22.486;2023-07-09T11:13:16;99576.00;;;33.38;50.36
24031;BME280;12240;51.142;22.486;2023-07-09T11:15:49;99564.50;;;34.10;48.06
24031;BME280;12240;51.142;22.486;2023-07-09T11:18:34;99566.50;;;34.55;47.58
24031;BME280;12240;51.142;22.486;2023-07-09T11:21:16;99562.88;;;31.38;48.93
24031;BME280;12240;51.142;22.486;2023-07-09T11:23:51;99559.00;;;32.26;48.68
24031;BME280;12240;51.142;22.486;2023-07-09T11:26:34;99567.16;;;32.36;50.36
24031;BME280;12240;51.142;22.486;2023-07-09T11:29:11;99579.78;;;31.06;50.15
24031;BME280;12240;51.142;22.486;2023-07-09T11:31:44;99573.78;;;31.53;50.75
24031;BME280;12240;51.142;22.486;2023-07-09T11:41:56;99522.56;;;33.29;45.66
24031;BME280;12240;51.142;22.486;2023-07-09T11:44:28;99547.63;;;33.14;45.67
24031;BME280;12240;51.142;22.486;2023-07-09T11:47:21;99542.16;;;31.99;44.60
24031;BME280;12240;51.142;22.486;2023-07-09T11:50:01;99526.47;;;32.23;45.04
24031;BME280;12240;51.142;22.486;2023-07-09T11:58:14;99568.03;;;30.65;47.67
24031;BME280;12240;51.142;22.486;2023-07-09T12:00:54;99558.09;;;30.90;46.97
24031;BME280;12240;51.142;22.486;2023-07-09T12:03:35;99559.28;;;30.28;48.52
24031;BME280;12240;51.142;22.486;2023-07-09T12:06:21;99534.31;;;31.19;47.23
24031;BME280;12240;51.142;22.486;2023-07-09T12:08:52;99548.72;;;31.59;47.59
24031;BME280;12240;51.142;22.486;2023-07-09T12:11:30;99537.81;;;31.88;46.74
24031;BME280;12240;51.142;22.486;2023-07-09T12:14:14;99539.00;;;33.39;46.06
24031;BME280;12240;51.142;22.486;2023-07-09T12:16:52;99531.75;;;32.77;45.89
24031;BME280;12240;51.142;22.486;2023-07-09T12:19:24;99540.66;;;34.14;45.93
24031;BME280;12240;51.142;22.486;2023-07-09T12:21:58;99538.06;;;33.67;45.29
24031;BME280;12240;51.142;22.486;2023-07-09T12:24:38;99533.72;;;32.76;46.10
24031;BME280;12240;51.142;22.486;2023-07-09T12:27:21;99528.56;;;33.73;44.87
24031;BME280;12240;51.142;22.486;2023-07-09T12:29:55;99537.09;;;33.58;47.43
24031;BME280;12240;51.142;22.486;2023-07-09T12:32:23;99520.03;;;32.09;46.26
24031;BME280;12240;51.142;22.486;2023-07-09T12:34:56;99545.16;;;31.59;47.96
24031;BME280;12240;51.142;22.486;2023-07-09T12:37:28;99545.22;;;33.49;47.31
24031;BME280;12240;51.142;22.486;2023-07-09T12:40:00;99528.44;;;33.83;46.60
24031;BME280;12240;51.142;22.486;2023-07-09T12:42:34;99535.47;;;33.57;46.04
24031;BME280;12240;51.142;22.486;2023-07-09T12:45:04;99517.75;;;32.16;45.39
24031;BME280;12240;51.142;22.486;2023-07-09T12:47:33;99533.66;;;34.03;46.56
24031;BME280;12240;51.142;22.486;2023-07-09T12:50:32;99534.63;;;32.90;46.46
24031;BME280;12240;51.142;22.486;2023-07-09T12:53:14;99515.72;;;31.01;46.70
24031;BME280;12240;51.142;22.486;2023-07-09T12:55:46;99508.91;;;30.83;47.54
24031;BME280;12240;51.142;22.486;2023-07-09T12:58:31;99521.91;;;32.14;47.60
24031;BME280;12240;51.142;22.486;2023-07-09T13:01:05;99533.75;;;31.22;47.35
24031;BME280;12240;51.142;22.486;2023-07-09T13:03:34;99530.84;;;32.01;46.61
24031;BME280;12240;51.142;22.486;2023-07-09T13:06:06;99526.75;;;32.55;46.71
24031;BME280;12240;51.142;22.486;2023-07-09T13:08:57;99505.06;;;32.15;45.40
24031;BME280;12240;51.142;22.486;2023-07-09T13:11:36;99519.53;;;31.05;46.49
24031;BME280;12240;51.142;22.486;2023-07-09T13:14:30;99518.31;;;32.70;46.80
24031;BME280;12240;51.142;22.486;2023-07-09T13:17:09;99518.59;;;32.45;45.40
24031;BME280;12240;51.142;22.486;2023-07-09T13:19:37;99505.94;;;32.11;46.27
24031;BME280;12240;51.142;22.486;2023-07-09T13:22:13;99521.25;;;33.26;46.53
24031;BME280;12240;51.142;22.486;2023-07-09T13:24:42;99520.34;;;31.64;46.04
24031;BME280;12240;51.142;22.486;2023-07-09T13:27:13;99516.81;;;32.54;46.31
24031;BME280;12240;51.142;22.486;2023-07-09T13:29:42;99521.25;;;33.02;45.49
24031;BME280;12240;51.142;22.486;2023-07-09T13:32:13;99523.66;;;32.62;45.29
24031;BME280;12240;51.142;22.486;2023-07-09T13:34:43;99519.88;;;33.66;45.06
24031;BME280;12240;51.142;22.486;2023-07-09T13:37:16;99500.38;;;32.73;44.15
24031;BME280;12240;51.142;22.486;2023-07-09T13:39:44;99499.56;;;30.74;45.16
24031;BME280;12240;51.142;22.486;2023-07-09T13:42:16;99510.66;;;29.99;46.30
24031;BME280;12240;51.142;22.486;2023-07-09T13:44:46;99519.16;;;31.26;47.46
24031;BME280;12240;51.142;22.486;2023-07-09T13:47:19;99507.13;;;31.66;46.23
24031;BME280;12240;51.142;22.486;2023-07-09T13:49:47;99507.03;;;32.10;46.74
24031;BME280;12240;51.142;22.486;2023-07-09T13:52:20;99506.41;;;31.89;45.65
24031;BME280;12240;51.142;22.486;2023-07-09T13:54:48;99497.63;;;30.84;44.83
24031;BME280;12240;51.142;22.486;2023-07-09T13:57:20;99515.06;;;30.25;45.66
24031;BME280;12240;51.142;22.486;2023-07-09T13:59:50;99508.47;;;30.26;45.73
24031;BME280;12240;51.142;22.486;2023-07-09T14:02:26;99516.78;;;32.02;46.01
24031;BME280;12240;51.142;22.486;2023-07-09T14:05:02;99501.59;;;31.17;45.33
24031;BME280;12240;51.142;22.486;2023-07-09T14:07:34;99502.22;;;32.25;44.74
24031;BME280;12240;51.142;22.486;2023-07-09T14:10:07;99494.06;;;32.15;43.95
24031;BME280;12240;51.142;22.486;2023-07-09T14:12:40;99504.88;;;32.35;44.85
24031;BME280;12240;51.142;22.486;2023-07-09T14:15:18;99499.78;;;32.99;44.27
24031;BME280;12240;51.142;22.486;2023-07-09T14:17:48;99496.84;;;33.33;43.43
24031;BME280;12240;51.142;22.486;2023-07-09T14:20:17;99495.19;;;32.90;43.17
24031;BME280;12240;51.142;22.486;2023-07-09T14:22:45;99483.13;;;32.05;43.30
24031;BME280;12240;51.142;22.486;2023-07-09T14:25:23;99493.56;;;31.26;44.21
24031;BME280;12240;51.142;22.486;2023-07-09T14:27:53;99495.66;;;31.49;44.69
24031;BME280;12240;51.142;22.486;2023-07-09T14:30:24;99501.72;;;31.89;44.15